Las Torres de Cotillas, Spain
Current Conditions -  °F | °C
As of 5:00 PM on Friday 19 Dec 2014 (Local Time) from LELC Reporting Station
Clear Clear  
Wind Chill: 17°   Ceiling: Unl
Heat Index: 17°   Visibility: 6mi
Dew Point: 13°   Wind: 9mph
Humidity: 77%   Direction: 210°SSW
Pressure: 30.33"   Gusts: NA
Location:  38.03°N, 1.24°W
Report Text: LELC 191600Z 21008KT CAVOK 17/13 Q1027 NOSIG
Loading
Personal Weather Stations






























Interactive Weather Map New forecast layout! Learn more

10-Day Weather Forecast

Advertisements
Track Severe Weather on mobile